Time,TemperatureF,DewpointF,PressureIn,WindDirection,WindDirectionDegrees,WindSpeedMPH,WindSpeedGustMPH,Humidity,HourlyPrecipIn,Conditions,Clouds,dailyrainin,SoftwareType,DateUTC
2013-04-03 00:00:00,51.4,45.5,30.09,NE,52,0.0,0.0,80,0.00,,SKC,0.00,VWS V13.01,2013-04-03 07:00:00,
2013-04-03 00:10:00,51.3,45.3,30.09,NE,52,0.0,0.0,80,0.00,,SKC,0.00,VWS V13.01,2013-04-03 07:10:00,
2013-04-03 00:20:00,51.0,45.4,30.08,ENE,58,0.0,0.0,81,0.00,,SKC,0.00,VWS V13.01,2013-04-03 07:20:00,
2013-04-03 00:30:00,50.8,45.2,30.09,ENE,58,0.0,0.0,81,0.00,,SKC,0.00,VWS V13.01,2013-04-03 07:30:00,
2013-04-03 00:40:00,50.7,45.1,30.09,ENE,58,0.0,0.0,81,0.00,,SKC,0.00,VWS V13.01,2013-04-03 07:40:00,
2013-04-03 00:50:00,50.5,44.9,30.09,ENE,58,0.0,0.0,81,0.00,,SKC,0.00,VWS V13.01,2013-04-03 07:50:00,
2013-04-03 01:00:00,50.4,45.1,30.09,ENE,58,0.0,0.0,82,0.00,,SKC,0.00,VWS V13.01,2013-04-03 08:00:00,
2013-04-03 01:10:00,50.1,44.8,30.09,ENE,58,0.0,0.0,82,0.00,,SKC,0.00,VWS V13.01,2013-04-03 08:10:00,
2013-04-03 01:20:00,49.9,44.6,30.10,ENE,58,0.0,0.0,82,0.00,,SKC,0.00,VWS V13.01,2013-04-03 08:20:00,
2013-04-03 01:30:00,49.6,44.3,30.09,ENE,58,0.0,0.0,82,0.00,,SKC,0.00,VWS V13.01,2013-04-03 08:30:00,
2013-04-03 01:40:00,49.5,44.6,30.09,ENE,58,0.0,0.0,83,0.00,,SKC,0.00,VWS V13.01,2013-04-03 08:40:00,
2013-04-03 01:50:00,49.2,44.3,30.10,ENE,58,0.0,0.0,83,0.00,,SKC,0.00,VWS V13.01,2013-04-03 08:50:00,
2013-04-03 02:00:00,48.9,44.0,30.10,ENE,58,0.0,0.0,83,0.00,,SKC,0.00,VWS V13.01,2013-04-03 09:00:00,
2013-04-03 02:10:00,48.8,43.9,30.10,ENE,58,0.0,0.0,83,0.00,,SKC,0.00,VWS V13.01,2013-04-03 09:10:00,
2013-04-03 02:20:00,48.5,43.9,30.09,ENE,58,0.0,0.0,84,0.00,,SKC,0.00,VWS V13.01,2013-04-03 09:20:00,
2013-04-03 02:30:00,48.2,43.6,30.09,ENE,58,0.0,0.0,84,0.00,,SKC,0.00,VWS V13.01,2013-04-03 09:30:00,
2013-04-03 02:40:00,47.9,43.3,30.09,ENE,58,0.0,0.0,84,0.00,,SKC,0.00,VWS V13.01,2013-04-03 09:40:00,
2013-04-03 02:49:00,47.7,43.1,30.08,ENE,58,0.0,0.0,84,0.00,,SKC,0.00,VWS V13.01,2013-04-03 09:49:00,
2013-04-03 02:50:00,47.7,43.1,30.08,ENE,58,0.0,0.0,84,0.00,,SKC,0.00,VWS V13.01,2013-04-03 09:50:00,
2013-04-03 03:00:00,47.7,43.1,30.08,ENE,58,0.0,0.0,84,0.00,,SKC,0.00,VWS V13.01,2013-04-03 10:00:00,
2013-04-03 03:10:00,47.7,43.4,30.08,ENE,68,0.0,0.0,85,0.00,,SKC,0.00,VWS V13.01,2013-04-03 10:10:00,
2013-04-03 03:20:00,47.7,43.4,30.08,ENE,68,0.0,0.0,85,0.00,,SKC,0.00,VWS V13.01,2013-04-03 10:20:00,
2013-04-03 03:30:00,47.6,43.3,30.08,ENE,68,0.0,0.0,85,0.00,,SKC,0.00,VWS V13.01,2013-04-03 10:30:00,
2013-04-03 03:40:00,47.3,43.0,30.08,ENE,68,0.0,0.0,85,0.00,,SKC,0.00,VWS V13.01,2013-04-03 10:40:00,
2013-04-03 03:50:00,46.8,42.5,30.08,ENE,68,0.0,0.0,85,0.00,,SKC,0.00,VWS V13.01,2013-04-03 10:50:00,
2013-04-03 04:00:00,46.5,42.5,30.09,ENE,67,0.0,0.0,86,0.00,,SKC,0.00,VWS V13.01,2013-04-03 11:00:00,
2013-04-03 04:09:00,46.4,42.5,30.09,ENE,67,0.0,0.0,86,0.00,,SKC,0.00,VWS V13.01,2013-04-03 11:09:00,
2013-04-03 04:10:00,46.4,42.5,30.09,ENE,67,0.0,0.0,86,0.00,,SKC,0.00,VWS V13.01,2013-04-03 11:10:00,
2013-04-03 04:20:00,46.4,42.5,30.08,ENE,67,0.0,0.0,86,0.00,,SKC,0.00,VWS V13.01,2013-04-03 11:20:00,
2013-04-03 04:30:00,46.4,42.5,30.08,ENE,67,0.0,0.0,86,0.00,,SKC,0.00,VWS V13.01,2013-04-03 11:30:00,
2013-04-03 04:40:00,46.4,42.8,30.08,ENE,73,0.0,0.0,87,0.00,,SKC,0.00,VWS V13.01,2013-04-03 11:40:00,
2013-04-03 04:50:00,46.4,42.8,30.08,ENE,73,0.0,0.0,87,0.00,,SKC,0.00,VWS V13.01,2013-04-03 11:50:00,
2013-04-03 05:00:00,46.2,42.5,30.08,ENE,73,0.0,0.0,87,0.00,,SKC,0.00,VWS V13.01,2013-04-03 12:00:00,
2013-04-03 05:10:00,46.1,42.5,30.08,ENE,73,0.0,0.0,87,0.00,,SKC,0.00,VWS V13.01,2013-04-03 12:10:00,
2013-04-03 05:20:00,45.8,42.2,30.07,ENE,73,0.0,0.0,87,0.00,,SKC,0.00,VWS V13.01,2013-04-03 12:20:00,
2013-04-03 05:30:00,45.7,41.8,30.07,ENE,73,0.0,0.0,86,0.00,,SKC,0.00,VWS V13.01,2013-04-03 12:30:00,
2013-04-03 05:40:00,45.5,41.6,30.07,ENE,73,0.0,0.0,86,0.00,,SKC,0.00,VWS V13.01,2013-04-03 12:40:00,
2013-04-03 05:50:00,45.2,41.3,30.07,ENE,73,0.0,0.0,86,0.00,,SKC,0.00,VWS V13.01,2013-04-03 12:50:00,
2013-04-03 06:00:00,44.9,41.0,30.07,ENE,73,0.0,0.0,86,0.00,,SKC,0.00,VWS V13.01,2013-04-03 13:00:00,
2013-04-03 06:10:00,44.6,40.7,30.07,ENE,73,0.0,0.0,86,0.00,,SKC,0.00,VWS V13.01,2013-04-03 13:10:00,
2013-04-03 06:20:00,44.3,40.7,30.07,ENE,73,0.0,0.0,87,0.00,,SKC,0.00,VWS V13.01,2013-04-03 13:20:00,
2013-04-03 06:30:00,44.1,40.5,30.07,ENE,73,0.0,0.0,87,0.00,,SKC,0.00,VWS V13.01,2013-04-03 13:30:00,
2013-04-03 06:40:00,44.1,40.5,30.07,ENE,73,0.0,0.0,87,0.00,,SKC,0.00,VWS V13.01,2013-04-03 13:40:00,
2013-04-03 06:50:00,43.9,40.3,30.07,ENE,73,0.0,0.0,87,0.00,,SKC,0.00,VWS V13.01,2013-04-03 13:50:00,
2013-04-03 07:00:00,43.8,40.2,30.08,ENE,73,0.0,0.0,87,0.00,,SKC,0.00,VWS V13.01,2013-04-03 14:00:00,
2013-04-03 07:10:00,43.8,40.5,30.08,ENE,73,0.0,0.0,88,0.00,,SKC,0.00,VWS V13.01,2013-04-03 14:10:00,
2013-04-03 07:20:00,43.9,40.6,30.07,ENE,73,0.0,0.0,88,0.00,,SKC,0.00,VWS V13.01,2013-04-03 14:20:00,
2013-04-03 07:30:00,44.1,40.8,30.06,ENE,73,0.0,0.0,88,0.00,,SKC,0.00,VWS V13.01,2013-04-03 14:30:00,
2013-04-03 07:40:00,44.2,40.9,30.06,ENE,73,0.0,0.0,88,0.00,,SKC,0.00,VWS V13.01,2013-04-03 14:40:00,
2013-04-03 07:56:00,44.5,41.2,30.06,North,0,0.0,0.0,88,0.00,,SKC,0.00,VWS V13.01,2013-04-03 14:56:00,
2013-04-03 08:10:00,44.8,41.8,30.05,ENE,73,0.0,0.0,89,0.00,,SKC,0.00,VWS V13.01,2013-04-03 15:10:00,
2013-04-03 08:20:00,45.5,42.5,30.05,ENE,73,0.0,0.0,89,0.00,,SKC,0.00,VWS V13.01,2013-04-03 15:20:00,
2013-04-03 08:30:00,46.2,43.1,30.05,ENE,68,0.0,0.0,89,0.00,,SKC,0.00,VWS V13.01,2013-04-03 15:30:00,
2013-04-03 08:40:00,47.3,44.2,30.05,North,11,0.0,0.0,89,0.00,,SKC,0.00,VWS V13.01,2013-04-03 15:40:00,
2013-04-03 08:50:00,48.5,45.1,30.04,North,358,0.0,0.0,88,0.00,,SKC,0.00,VWS V13.01,2013-04-03 15:50:00,
2013-04-03 09:00:00,49.2,45.5,30.05,NNW,337,0.0,0.0,87,0.00,,SKC,0.00,VWS V13.01,2013-04-03 16:00:00,
2013-04-03 09:10:00,49.8,45.8,30.05,NW,312,0.0,0.0,86,0.00,,SKC,0.00,VWS V13.01,2013-04-03 16:10:00,
2013-04-03 09:20:00,50.2,45.9,30.05,WNW,303,0.0,0.0,85,0.00,,SKC,0.00,VWS V13.01,2013-04-03 16:20:00,
2013-04-03 09:30:00,50.5,45.8,30.05,North,358,0.0,0.0,84,0.00,,SKC,0.00,VWS V13.01,2013-04-03 16:30:00,
2013-04-03 09:40:00,50.8,45.8,30.05,North,0,0.0,0.0,83,0.00,,SKC,0.00,VWS V13.01,2013-04-03 16:40:00,
2013-04-03 09:50:00,51.1,46.1,30.05,NNW,338,0.0,0.0,83,0.00,,SKC,0.00,VWS V13.01,2013-04-03 16:50:00,
2013-04-03 10:00:00,50.5,45.2,30.07,NW,326,0.0,0.0,82,0.00,,SKC,0.00,VWS V13.01,2013-04-03 17:00:00,
2013-04-03 10:10:00,49.8,44.8,30.07,NNW,335,0.0,0.0,83,0.00,,SKC,0.00,VWS V13.01,2013-04-03 17:10:00,
2013-04-03 10:20:00,49.5,44.9,30.07,NNW,333,0.0,0.0,84,0.00,,SKC,0.00,VWS V13.01,2013-04-03 17:20:00,
2013-04-03 10:30:00,49.2,44.6,30.06,NNW,330,0.0,0.0,84,0.00,,SKC,0.00,VWS V13.01,2013-04-03 17:30:00,
2013-04-03 10:40:00,48.9,44.6,30.06,North,356,0.0,0.0,85,0.00,,SKC,0.00,VWS V13.01,2013-04-03 17:40:00,
2013-04-03 10:50:00,49.2,44.9,30.06,NNW,339,0.0,0.0,85,0.00,,SKC,0.00,VWS V13.01,2013-04-03 17:50:00,
2013-04-03 11:00:00,49.6,45.6,30.06,NNW,343,0.0,0.0,86,0.00,,SKC,0.00,VWS V13.01,2013-04-03 18:00:00,
2013-04-03 11:10:00,50.1,46.1,30.06,North,4,0.0,0.0,86,0.00,,SKC,0.00,VWS V13.01,2013-04-03 18:10:00,
2013-04-03 11:20:00,50.4,46.4,30.06,North,358,0.0,0.0,86,0.00,,SKC,0.00,VWS V13.01,2013-04-03 18:20:00,
2013-04-03 11:30:00,51.1,46.8,30.05,North,349,0.0,0.0,85,0.00,,SKC,0.00,VWS V13.01,2013-04-03 18:30:00,
2013-04-03 11:40:00,51.6,46.9,30.05,NNW,338,0.0,0.0,84,0.00,,SKC,0.00,VWS V13.01,2013-04-03 18:40:00,
2013-04-03 11:50:00,51.9,46.9,30.05,NNE,15,0.0,0.0,83,0.00,,SKC,0.00,VWS V13.01,2013-04-03 18:50:00,
2013-04-03 12:00:00,52.6,47.3,30.05,North,0,0.0,0.0,82,0.00,,SKC,0.00,VWS V13.01,2013-04-03 19:00:00,
2013-04-03 12:10:00,53.3,47.6,30.05,North,356,0.0,0.0,81,0.00,,SKC,0.00,VWS V13.01,2013-04-03 19:10:00,
2013-04-03 12:20:00,53.8,47.8,30.05,NNW,327,0.0,0.0,80,0.00,,SKC,0.00,VWS V13.01,2013-04-03 19:20:00,
2013-04-03 12:30:00,54.1,47.7,30.04,North,359,0.0,0.0,79,0.00,,SKC,0.00,VWS V13.01,2013-04-03 19:30:00,
2013-04-03 12:40:00,54.1,47.7,30.04,North,1,0.0,0.0,79,0.00,,SKC,0.00,VWS V13.01,2013-04-03 19:40:00,
2013-04-03 13:00:00,55.0,48.3,30.05,North,0,0.0,0.0,78,0.00,,SKC,0.00,VWS V13.01,2013-04-03 20:00:00,
2013-04-03 13:10:00,55.4,48.7,30.05,NNW,334,0.0,0.0,78,0.00,,SKC,0.00,VWS V13.01,2013-04-03 20:10:00,
2013-04-03 13:20:00,55.9,48.5,30.05,North,356,0.0,0.0,76,0.00,,SKC,0.00,VWS V13.01,2013-04-03 20:20:00,
2013-04-03 13:30:00,55.7,48.3,30.05,North,0,0.0,0.0,76,0.00,,SKC,0.00,VWS V13.01,2013-04-03 20:30:00,
2013-04-03 13:40:00,55.9,48.5,30.05,North,0,0.0,0.0,76,0.00,,SKC,0.00,VWS V13.01,2013-04-03 20:40:00,
2013-04-03 13:50:00,56.5,49.0,30.04,NNE,15,0.0,0.0,76,0.00,,SKC,0.00,VWS V13.01,2013-04-03 20:50:00,
2013-04-03 14:00:00,57.0,49.2,30.03,NE,54,0.0,0.0,75,0.00,,SKC,0.00,VWS V13.01,2013-04-03 21:00:00,
2013-04-03 14:10:00,57.5,49.7,30.03,NNE,16,0.0,0.0,75,0.00,,SKC,0.00,VWS V13.01,2013-04-03 21:10:00,
2013-04-03 14:20:00,58.0,50.1,30.02,NE,39,0.0,0.0,75,0.00,,SKC,0.00,VWS V13.01,2013-04-03 21:20:00,
2013-04-03 14:30:00,58.3,50.1,30.00,ENE,65,0.0,0.0,74,0.00,,SKC,0.00,VWS V13.01,2013-04-03 21:30:00,
2013-04-03 14:40:00,58.9,50.6,30.00,NE,46,0.0,0.0,74,0.00,,SKC,0.00,VWS V13.01,2013-04-03 21:40:00,
2013-04-03 14:50:00,59.5,51.2,30.00,North,349,0.0,0.0,74,0.00,,SKC,0.00,VWS V13.01,2013-04-03 21:50:00,
2013-04-03 15:00:00,60.4,51.3,29.99,North,0,0.0,0.0,72,0.00,,SKC,0.00,VWS V13.01,2013-04-03 22:00:00,
2013-04-03 15:10:00,61.2,52.1,29.99,NNW,345,0.0,0.0,72,0.00,,SKC,0.00,VWS V13.01,2013-04-03 22:10:00,
2013-04-03 15:20:00,61.6,52.1,29.99,NW,311,0.0,0.0,71,0.00,,SKC,0.00,VWS V13.01,2013-04-03 22:20:00,
2013-04-03 15:30:00,61.6,52.1,29.99,NW,317,0.0,0.0,71,0.00,,SKC,0.00,VWS V13.01,2013-04-03 22:30:00,
2013-04-03 15:40:00,61.8,51.9,29.99,North,356,0.0,0.0,70,0.00,,SKC,0.00,VWS V13.01,2013-04-03 22:40:00,
2013-04-03 15:50:00,62.1,51.8,29.97,NNW,334,0.0,0.0,69,0.00,,SKC,0.00,VWS V13.01,2013-04-03 22:50:00,
2013-04-03 16:00:00,62.0,51.7,29.96,NW,305,0.0,0.0,69,0.00,,SKC,0.00,VWS V13.01,2013-04-03 23:00:00,
2013-04-03 16:10:00,62.1,51.8,29.96,WNW,290,0.0,0.0,69,0.00,,SKC,0.00,VWS V13.01,2013-04-03 23:10:00,
2013-04-03 16:20:00,62.6,52.3,29.96,North,0,0.0,0.0,69,0.00,,SKC,0.00,VWS V13.01,2013-04-03 23:20:00,
2013-04-03 16:30:00,62.7,51.6,29.95,NNE,26,0.0,0.0,67,0.00,,SKC,0.00,VWS V13.01,2013-04-03 23:30:00,
2013-04-03 16:40:00,63.1,52.4,29.95,North,0,0.0,0.0,68,0.00,,SKC,0.00,VWS V13.01,2013-04-03 23:40:00,
2013-04-03 16:50:00,63.2,52.1,29.94,North,353,0.0,0.0,67,0.00,,SKC,0.00,VWS V13.01,2013-04-03 23:50:00,
2013-04-03 17:00:00,63.5,52.0,29.94,North,349,0.0,0.0,66,0.00,,SKC,0.00,VWS V13.01,2013-04-04 00:00:00,
2013-04-03 17:10:00,64.0,52.0,29.94,NNW,328,0.0,0.0,65,0.00,,SKC,0.00,VWS V13.01,2013-04-04 00:10:00,
2013-04-03 17:20:00,63.9,51.9,29.94,NW,321,0.0,0.0,65,0.00,,SKC,0.00,VWS V13.01,2013-04-04 00:20:00,
2013-04-03 17:30:00,64.0,52.4,29.92,NNW,343,0.0,0.0,66,0.00,,SKC,0.00,VWS V13.01,2013-04-04 00:30:00,
2013-04-03 17:40:00,64.2,51.8,29.92,NNW,347,0.0,0.0,64,0.00,,SKC,0.00,VWS V13.01,2013-04-04 00:40:00,
2013-04-03 17:50:00,64.2,51.8,29.92,North,349,0.0,0.0,64,0.00,,SKC,0.00,VWS V13.01,2013-04-04 00:50:00,
2013-04-03 18:00:00,63.9,51.9,29.92,NNW,331,0.0,0.0,65,0.00,,SKC,0.00,VWS V13.01,2013-04-04 01:00:00,
2013-04-03 18:10:00,63.4,51.9,29.92,NW,316,0.0,0.0,66,0.00,,SKC,0.00,VWS V13.01,2013-04-04 01:10:00,
2013-04-03 18:20:00,63.2,51.7,29.92,NW,324,0.0,0.0,66,0.00,,SKC,0.00,VWS V13.01,2013-04-04 01:20:00,
2013-04-03 18:30:00,63.1,52.0,29.91,North,357,0.0,0.0,67,0.00,,SKC,0.00,VWS V13.01,2013-04-04 01:30:00,
2013-04-03 18:40:00,62.7,51.6,29.91,NNW,336,0.0,0.0,67,0.00,,SKC,0.00,VWS V13.01,2013-04-04 01:40:00,
2013-04-03 18:50:00,62.6,51.9,29.91,NNW,336,0.0,0.0,68,0.00,,SKC,0.00,VWS V13.01,2013-04-04 01:50:00,
2013-04-03 19:00:00,62.3,51.6,29.90,NNW,336,0.0,0.0,68,0.00,,SKC,0.00,VWS V13.01,2013-04-04 02:00:00,
2013-04-03 19:10:00,62.1,51.8,29.90,NNW,336,0.0,0.0,69,0.00,,SKC,0.00,VWS V13.01,2013-04-04 02:10:00,
2013-04-03 19:20:00,61.8,51.5,29.90,NNW,336,0.0,0.0,69,0.00,,SKC,0.00,VWS V13.01,2013-04-04 02:20:00,
2013-04-03 19:30:00,61.6,51.7,29.89,NNW,336,0.0,0.0,70,0.00,,SKC,0.00,VWS V13.01,2013-04-04 02:30:00,
2013-04-03 19:40:00,61.5,51.6,29.89,NNW,336,0.0,0.0,70,0.00,,SKC,0.00,VWS V13.01,2013-04-04 02:40:00,
2013-04-03 19:50:00,61.2,51.7,29.89,NNW,336,0.0,0.0,71,0.00,,SKC,0.00,VWS V13.01,2013-04-04 02:50:00,
2013-04-03 20:00:00,60.9,51.8,29.89,NNW,336,0.0,0.0,72,0.00,,SKC,0.00,VWS V13.01,2013-04-04 03:00:00,
2013-04-03 20:10:00,60.5,51.4,29.89,NNW,336,0.0,0.0,72,0.00,,SKC,0.00,VWS V13.01,2013-04-04 03:10:00,
2013-04-03 20:20:00,60.2,51.5,29.89,NNW,336,0.0,0.0,73,0.00,,SKC,0.00,VWS V13.01,2013-04-04 03:20:00,
2013-04-03 20:30:00,59.9,51.2,29.89,NNW,336,0.0,0.0,73,0.00,,SKC,0.00,VWS V13.01,2013-04-04 03:30:00,
2013-04-03 20:40:00,59.8,51.5,29.89,NNW,336,0.0,0.0,74,0.00,,SKC,0.00,VWS V13.01,2013-04-04 03:40:00,
2013-04-03 20:50:00,59.3,51.4,29.90,NNW,336,0.0,0.0,75,0.00,,SKC,0.00,VWS V13.01,2013-04-04 03:50:00,
2013-04-03 21:00:00,59.2,51.7,29.90,NNW,336,0.0,0.0,76,0.00,,SKC,0.00,VWS V13.01,2013-04-04 04:00:00,
2013-04-03 21:10:00,58.9,51.4,29.90,NNW,336,0.0,0.0,76,0.00,,SKC,0.00,VWS V13.01,2013-04-04 04:10:00,
2013-04-03 21:20:00,58.4,51.2,29.89,NNW,336,0.0,0.0,77,0.00,,SKC,0.00,VWS V13.01,2013-04-04 04:20:00,
2013-04-03 21:30:00,58.0,51.2,29.89,NNW,336,0.0,0.0,78,0.00,,SKC,0.00,VWS V13.01,2013-04-04 04:30:00,
2013-04-03 21:40:00,57.5,51.0,29.89,East,85,0.0,0.0,79,0.00,,SKC,0.00,VWS V13.01,2013-04-04 04:40:00,
2013-04-03 21:50:00,57.2,51.4,29.89,East,84,0.0,0.0,81,0.00,,SKC,0.00,VWS V13.01,2013-04-04 04:50:00,
2013-04-03 22:00:00,57.0,51.2,29.88,East,84,0.0,0.0,81,0.00,,SKC,0.00,VWS V13.01,2013-04-04 05:00:00,
2013-04-03 22:10:00,57.2,51.4,29.88,East,89,0.0,0.0,81,0.00,,SKC,0.00,VWS V13.01,2013-04-04 05:10:00,
2013-04-03 22:20:00,57.2,51.8,29.88,East,89,0.0,0.0,82,0.00,,SKC,0.00,VWS V13.01,2013-04-04 05:20:00,
2013-04-03 22:30:00,57.2,51.8,29.87,SSE,151,0.0,0.0,82,0.00,,SKC,0.00,VWS V13.01,2013-04-04 05:30:00,
2013-04-03 22:40:00,57.2,51.8,29.87,ESE,108,0.0,0.0,82,0.00,,SKC,0.00,VWS V13.01,2013-04-04 05:40:00,
2013-04-03 22:50:00,57.3,51.9,29.86,SE,136,0.0,0.0,82,0.00,,SKC,0.00,VWS V13.01,2013-04-04 05:50:00,
2013-04-03 23:00:00,57.3,51.5,29.85,ESE,115,0.0,0.0,81,0.00,,SKC,0.00,VWS V13.01,2013-04-04 06:00:00,
2013-04-03 23:10:00,57.6,50.8,29.85,ESE,114,0.0,0.0,78,0.00,,SKC,0.00,VWS V13.01,2013-04-04 06:10:00,
2013-04-03 23:20:00,58.0,50.5,29.85,SE,127,0.0,0.0,76,0.00,,SKC,0.00,VWS V13.01,2013-04-04 06:20:00,
2013-04-03 23:30:00,58.1,49.9,29.85,East,89,0.0,0.0,74,0.00,,SKC,0.00,VWS V13.01,2013-04-04 06:30:00,
2013-04-03 23:40:00,58.1,49.5,29.85,SSE,154,0.0,0.0,73,0.00,,SKC,0.00,VWS V13.01,2013-04-04 06:40:00,
2013-04-03 23:50:00,58.1,49.5,29.84,East,101,0.0,0.0,73,0.00,,SKC,0.00,VWS V13.01,2013-04-04 06:50:00,